sensor_id;sensor_type;location;lat;lon;timestamp;temperature;humidity
3172;DHT22;1597;51.572;6.992;2022-09-02T00:01:59;18.90;1.00
3172;DHT22;1597;51.572;6.992;2022-09-02T00:04:26;18.90;1.00
3172;DHT22;1597;51.572;6.992;2022-09-02T00:06:53;18.80;1.00
3172;DHT22;1597;51.572;6.992;2022-09-02T00:09:22;18.70;1.00
3172;DHT22;1597;51.572;6.992;2022-09-02T00:11:50;18.70;1.00
3172;DHT22;1597;51.572;6.992;2022-09-02T00:14:27;18.70;1.00
3172;DHT22;1597;51.572;6.992;2022-09-02T00:16:54;18.70;1.00
3172;DHT22;1597;51.572;6.992;2022-09-02T00:19:23;18.60;1.00
3172;DHT22;1597;51.572;6.992;2022-09-02T00:21:51;18.60;1.00
3172;DHT22;1597;51.572;6.992;2022-09-02T00:24:18;18.50;1.00
3172;DHT22;1597;51.572;6.992;2022-09-02T00:26:44;18.50;1.00
3172;DHT22;1597;51.572;6.992;2022-09-02T00:29:11;18.50;1.00
3172;DHT22;1597;51.572;6.992;2022-09-02T00:31:40;18.50;1.00
3172;DHT22;1597;51.572;6.992;2022-09-02T00:34:08;18.50;1.00
3172;DHT22;1597;51.572;6.992;2022-09-02T00:36:34;18.40;1.00
3172;DHT22;1597;51.572;6.992;2022-09-02T00:39:01;18.40;1.00
3172;DHT22;1597;51.572;6.992;2022-09-02T00:41:29;18.50;1.00
3172;DHT22;1597;51.572;6.992;2022-09-02T00:46:24;18.40;1.00
3172;DHT22;1597;51.572;6.992;2022-09-02T00:49:09;18.40;1.00
3172;DHT22;1597;51.572;6.992;2022-09-02T00:52:38;18.40;1.00
3172;DHT22;1597;51.572;6.992;2022-09-02T00:55:26;18.40;1.00
3172;DHT22;1597;51.572;6.992;2022-09-02T00:57:59;18.30;1.00
3172;DHT22;1597;51.572;6.992;2022-09-02T01:00:32;18.30;1.00
3172;DHT22;1597;51.572;6.992;2022-09-02T01:03:05;18.30;1.00
3172;DHT22;1597;51.572;6.992;2022-09-02T01:05:36;18.20;1.00
3172;DHT22;1597;51.572;6.992;2022-09-02T01:08:04;18.20;1.00
3172;DHT22;1597;51.572;6.992;2022-09-02T01:10:34;18.20;1.00
3172;DHT22;1597;51.572;6.992;2022-09-02T01:13:10;18.20;1.00
3172;DHT22;1597;51.572;6.992;2022-09-02T01:15:47;18.20;1.00
3172;DHT22;1597;51.572;6.992;2022-09-02T01:18:21;18.20;1.00
3172;DHT22;1597;51.572;6.992;2022-09-02T01:20:50;18.20;1.00
3172;DHT22;1597;51.572;6.992;2022-09-02T01:23:17;18.20;1.00
3172;DHT22;1597;51.572;6.992;2022-09-02T01:25:43;18.20;1.00
3172;DHT22;1597;51.572;6.992;2022-09-02T01:28:12;18.20;1.00
3172;DHT22;1597;51.572;6.992;2022-09-02T01:30:43;18.20;1.00
3172;DHT22;1597;51.572;6.992;2022-09-02T01:33:11;18.20;1.00
3172;DHT22;1597;51.572;6.992;2022-09-02T01:35:37;18.20;1.00
3172;DHT22;1597;51.572;6.992;2022-09-02T01:38:04;18.20;1.00
3172;DHT22;1597;51.572;6.992;2022-09-02T01:40:30;18.10;1.00
3172;DHT22;1597;51.572;6.992;2022-09-02T01:43:07;18.10;1.00
3172;DHT22;1597;51.572;6.992;2022-09-02T01:45:36;18.10;1.00
3172;DHT22;1597;51.572;6.992;2022-09-02T01:48:04;18.10;1.00
3172;DHT22;1597;51.572;6.992;2022-09-02T01:50:30;18.10;1.00
3172;DHT22;1597;51.572;6.992;2022-09-02T01:52:58;18.10;1.00
3172;DHT22;1597;51.572;6.992;2022-09-02T01:55:26;18.00;1.00
3172;DHT22;1597;51.572;6.992;2022-09-02T01:57:52;18.00;1.00
3172;DHT22;1597;51.572;6.992;2022-09-02T02:00:17;18.00;1.00
3172;DHT22;1597;51.572;6.992;2022-09-02T02:02:43;18.00;1.00
3172;DHT22;1597;51.572;6.992;2022-09-02T02:05:10;18.00;1.00
3172;DHT22;1597;51.572;6.992;2022-09-02T02:07:36;17.90;1.00
3172;DHT22;1597;51.572;6.992;2022-09-02T02:10:04;17.90;1.00
3172;DHT22;1597;51.572;6.992;2022-09-02T02:12:32;17.90;1.00
3172;DHT22;1597;51.572;6.992;2022-09-02T02:15:01;17.80;1.00
3172;DHT22;1597;51.572;6.992;2022-09-02T02:17:29;17.80;1.00
3172;DHT22;1597;51.572;6.992;2022-09-02T02:19:54;17.80;1.00
3172;DHT22;1597;51.572;6.992;2022-09-02T02:22:20;17.80;1.00
3172;DHT22;1597;51.572;6.992;2022-09-02T02:24:46;17.80;1.00
3172;DHT22;1597;51.572;6.992;2022-09-02T02:27:12;17.80;1.00
3172;DHT22;1597;51.572;6.992;2022-09-02T02:29:38;17.80;1.00
3172;DHT22;1597;51.572;6.992;2022-09-02T02:32:04;17.80;1.00
3172;DHT22;1597;51.572;6.992;2022-09-02T02:34:32;17.80;1.00
3172;DHT22;1597;51.572;6.992;2022-09-02T02:36:58;17.80;1.00
3172;DHT22;1597;51.572;6.992;2022-09-02T02:39:24;17.80;1.00
3172;DHT22;1597;51.572;6.992;2022-09-02T02:41:50;17.70;1.00
3172;DHT22;1597;51.572;6.992;2022-09-02T02:44:16;17.60;1.00
3172;DHT22;1597;51.572;6.992;2022-09-02T02:46:42;17.70;1.00
3172;DHT22;1597;51.572;6.992;2022-09-02T02:49:08;17.60;1.00
3172;DHT22;1597;51.572;6.992;2022-09-02T02:51:35;17.60;1.00
3172;DHT22;1597;51.572;6.992;2022-09-02T02:54:02;17.60;1.00
3172;DHT22;1597;51.572;6.992;2022-09-02T02:56:29;17.60;1.00
3172;DHT22;1597;51.572;6.992;2022-09-02T02:58:56;17.60;1.00
3172;DHT22;1597;51.572;6.992;2022-09-02T03:01:25;17.60;1.00
3172;DHT22;1597;51.572;6.992;2022-09-02T03:03:51;17.60;1.00
3172;DHT22;1597;51.572;6.992;2022-09-02T03:06:18;17.60;1.00
3172;DHT22;1597;51.572;6.992;2022-09-02T03:08:44;17.50;1.00
3172;DHT22;1597;51.572;6.992;2022-09-02T03:11:13;17.50;1.00
3172;DHT22;1597;51.572;6.992;2022-09-02T03:13:40;17.60;1.00
3172;DHT22;1597;51.572;6.992;2022-09-02T03:16:06;17.50;1.00
3172;DHT22;1597;51.572;6.992;2022-09-02T03:18:33;17.50;1.00
3172;DHT22;1597;51.572;6.992;2022-09-02T03:20:59;17.50;1.00
3172;DHT22;1597;51.572;6.992;2022-09-02T03:23:25;17.50;1.00
3172;DHT22;1597;51.572;6.992;2022-09-02T03:25:51;17.40;1.00
3172;DHT22;1597;51.572;6.992;2022-09-02T03:28:17;17.50;1.00
3172;DHT22;1597;51.572;6.992;2022-09-02T03:30:44;17.40;1.00
3172;DHT22;1597;51.572;6.992;2022-09-02T03:33:11;17.40;1.00
3172;DHT22;1597;51.572;6.992;2022-09-02T03:35:41;17.40;1.00
3172;DHT22;1597;51.572;6.992;2022-09-02T03:38:09;17.40;1.00
3172;DHT22;1597;51.572;6.992;2022-09-02T03:40:37;17.40;1.00
3172;DHT22;1597;51.572;6.992;2022-09-02T03:43:04;17.40;1.00
3172;DHT22;1597;51.572;6.992;2022-09-02T03:45:30;17.40;1.00
3172;DHT22;1597;51.572;6.992;2022-09-02T03:47:56;17.30;1.00
3172;DHT22;1597;51.572;6.992;2022-09-02T03:50:29;17.30;1.00
3172;DHT22;1597;51.572;6.992;2022-09-02T03:52:57;17.30;1.00
3172;DHT22;1597;51.572;6.992;2022-09-02T03:55:24;17.30;1.00
3172;DHT22;1597;51.572;6.992;2022-09-02T03:57:51;17.30;1.00
3172;DHT22;1597;51.572;6.992;2022-09-02T04:00:20;17.30;1.00
3172;DHT22;1597;51.572;6.992;2022-09-02T04:02:50;17.20;1.00
3172;DHT22;1597;51.572;6.992;2022-09-02T04:05:16;17.20;1.00
3172;DHT22;1597;51.572;6.992;2022-09-02T04:07:42;17.20;1.00
3172;DHT22;1597;51.572;6.992;2022-09-02T04:10:10;17.10;1.00
3172;DHT22;1597;51.572;6.992;2022-09-02T04:12:37;17.10;1.00
3172;DHT22;1597;51.572;6.992;2022-09-02T04:15:05;17.10;1.00
3172;DHT22;1597;51.572;6.992;2022-09-02T04:17:35;17.10;1.00
3172;DHT22;1597;51.572;6.992;2022-09-02T04:20:04;17.20;1.00
3172;DHT22;1597;51.572;6.992;2022-09-02T04:22:31;17.10;1.00
3172;DHT22;1597;51.572;6.992;2022-09-02T04:24:57;17.10;1.00
3172;DHT22;1597;51.572;6.992;2022-09-02T04:27:23;17.00;1.00
3172;DHT22;1597;51.572;6.992;2022-09-02T04:29:49;17.10;1.00
3172;DHT22;1597;51.572;6.992;2022-09-02T04:32:15;17.00;1.00
3172;DHT22;1597;51.572;6.992;2022-09-02T04:34:41;17.00;1.00
3172;DHT22;1597;51.572;6.992;2022-09-02T04:37:07;17.00;1.00
3172;DHT22;1597;51.572;6.992;2022-09-02T04:39:33;16.90;1.00
3172;DHT22;1597;51.572;6.992;2022-09-02T04:41:59;17.00;1.00
3172;DHT22;1597;51.572;6.992;2022-09-02T04:44:25;16.90;1.00
3172;DHT22;1597;51.572;6.992;2022-09-02T04:46:51;17.00;1.00
3172;DHT22;1597;51.572;6.992;2022-09-02T04:49:17;17.00;1.00
3172;DHT22;1597;51.572;6.992;2022-09-02T04:51:43;16.90;1.00
3172;DHT22;1597;51.572;6.992;2022-09-02T04:54:09;16.90;1.00
3172;DHT22;1597;51.572;6.992;2022-09-02T04:56:35;16.90;1.00
3172;DHT22;1597;51.572;6.992;2022-09-02T04:59:02;16.90;1.00
3172;DHT22;1597;51.572;6.992;2022-09-02T05:01:32;16.90;1.00
3172;DHT22;1597;51.572;6.992;2022-09-02T05:03:59;16.90;1.00
3172;DHT22;1597;51.572;6.992;2022-09-02T05:06:28;16.90;1.00
3172;DHT22;1597;51.572;6.992;2022-09-02T05:08:55;16.90;1.00
3172;DHT22;1597;51.572;6.992;2022-09-02T05:11:24;17.00;1.00
3172;DHT22;1597;51.572;6.992;2022-09-02T05:13:54;17.00;1.00
3172;DHT22;1597;51.572;6.992;2022-09-02T05:16:25;17.00;1.00
3172;DHT22;1597;51.572;6.992;2022-09-02T05:18:56;17.00;1.00
3172;DHT22;1597;51.572;6.992;2022-09-02T05:21:22;17.00;1.00
3172;DHT22;1597;51.572;6.992;2022-09-02T05:23:49;17.00;1.00
3172;DHT22;1597;51.572;6.992;2022-09-02T05:26:16;17.10;1.00
3172;DHT22;1597;51.572;6.992;2022-09-02T05:28:42;17.00;1.00
3172;DHT22;1597;51.572;6.992;2022-09-02T05:31:10;17.00;1.00
3172;DHT22;1597;51.572;6.992;2022-09-02T05:33:38;17.00;1.00
3172;DHT22;1597;51.572;6.992;2022-09-02T05:36:26;17.10;1.00
3172;DHT22;1597;51.572;6.992;2022-09-02T05:38:52;17.10;1.00
3172;DHT22;1597;51.572;6.992;2022-09-02T05:41:20;17.10;1.00
3172;DHT22;1597;51.572;6.992;2022-09-02T05:43:51;17.10;1.00
3172;DHT22;1597;51.572;6.992;2022-09-02T05:46:20;17.00;1.00
3172;DHT22;1597;51.572;6.992;2022-09-02T05:48:48;17.10;1.00
3172;DHT22;1597;51.572;6.992;2022-09-02T05:54:16;17.10;1.00
3172;DHT22;1597;51.572;6.992;2022-09-02T05:56:45;17.20;1.00
3172;DHT22;1597;51.572;6.992;2022-09-02T05:59:12;17.20;1.00
3172;DHT22;1597;51.572;6.992;2022-09-02T06:01:39;17.20;1.00
3172;DHT22;1597;51.572;6.992;2022-09-02T06:04:05;17.20;1.00
3172;DHT22;1597;51.572;6.992;2022-09-02T06:06:31;17.20;1.00
3172;DHT22;1597;51.572;6.992;2022-09-02T06:08:58;17.30;1.00
3172;DHT22;1597;51.572;6.992;2022-09-02T06:11:25;17.30;1.00
3172;DHT22;1597;51.572;6.992;2022-09-02T06:13:53;17.30;1.00
3172;DHT22;1597;51.572;6.992;2022-09-02T06:16:20;17.30;1.00
3172;DHT22;1597;51.572;6.992;2022-09-02T06:18:48;17.30;1.00
3172;DHT22;1597;51.572;6.992;2022-09-02T06:21:15;17.40;1.00
3172;DHT22;1597;51.572;6.992;2022-09-02T06:23:41;17.40;1.00
3172;DHT22;1597;51.572;6.992;2022-09-02T06:26:10;17.40;1.00
3172;DHT22;1597;51.572;6.992;2022-09-02T06:28:36;17.40;1.00
3172;DHT22;1597;51.572;6.992;2022-09-02T06:31:08;17.40;1.00
3172;DHT22;1597;51.572;6.992;2022-09-02T06:33:40;17.40;1.00
3172;DHT22;1597;51.572;6.992;2022-09-02T06:36:08;17.40;1.00
3172;DHT22;1597;51.572;6.992;2022-09-02T06:38:37;17.40;1.00
3172;DHT22;1597;51.572;6.992;2022-09-02T06:41:04;17.40;1.00
3172;DHT22;1597;51.572;6.992;2022-09-02T06:43:30;17.50;1.00
3172;DHT22;1597;51.572;6.992;2022-09-02T06:45:56;17.60;1.00
3172;DHT22;1597;51.572;6.992;2022-09-02T06:48:22;17.60;1.00
3172;DHT22;1597;51.572;6.992;2022-09-02T06:50:48;17.60;1.00
3172;DHT22;1597;51.572;6.992;2022-09-02T06:53:13;17.70;1.00
3172;DHT22;1597;51.572;6.992;2022-09-02T06:55:42;17.70;1.00
3172;DHT22;1597;51.572;6.992;2022-09-02T06:58:09;17.80;1.00
3172;DHT22;1597;51.572;6.992;2022-09-02T07:00:37;17.80;1.00
3172;DHT22;1597;51.572;6.992;2022-09-02T07:03:04;17.90;1.00
3172;DHT22;1597;51.572;6.992;2022-09-02T07:06:09;17.90;1.00
3172;DHT22;1597;51.572;6.992;2022-09-02T07:08:37;17.90;1.00
3172;DHT22;1597;51.572;6.992;2022-09-02T07:11:06;17.90;1.00
3172;DHT22;1597;51.572;6.992;2022-09-02T07:13:39;17.90;1.00
3172;DHT22;1597;51.572;6.992;2022-09-02T07:16:05;17.90;1.00
3172;DHT22;1597;51.572;6.992;2022-09-02T07:18:33;18.00;1.00
3172;DHT22;1597;51.572;6.992;2022-09-02T07:21:00;18.00;1.00
3172;DHT22;1597;51.572;6.992;2022-09-02T07:23:25;18.00;1.00
3172;DHT22;1597;51.572;6.992;2022-09-02T07:25:52;18.00;1.00
3172;DHT22;1597;51.572;6.992;2022-09-02T07:28:19;18.10;1.00
3172;DHT22;1597;51.572;6.992;2022-09-02T07:30:46;18.10;1.00
3172;DHT22;1597;51.572;6.992;2022-09-02T07:33:12;18.20;1.00
3172;DHT22;1597;51.572;6.992;2022-09-02T07:35:42;18.20;1.00
3172;DHT22;1597;51.572;6.992;2022-09-02T07:38:09;18.20;1.00
3172;DHT22;1597;51.572;6.992;2022-09-02T07:40:37;18.30;1.00
3172;DHT22;1597;51.572;6.992;2022-09-02T07:43:06;18.40;1.00
3172;DHT22;1597;51.572;6.992;2022-09-02T07:45:33;18.40;1.00
3172;DHT22;1597;51.572;6.992;2022-09-02T07:48:00;18.40;1.00
3172;DHT22;1597;51.572;6.992;2022-09-02T07:50:27;18.50;1.00
3172;DHT22;1597;51.572;6.992;2022-09-02T07:52:55;18.50;1.00
3172;DHT22;1597;51.572;6.992;2022-09-02T07:55:24;18.50;1.00
3172;DHT22;1597;51.572;6.992;2022-09-02T07:57:51;18.60;1.00
3172;DHT22;1597;51.572;6.992;2022-09-02T08:00:20;18.60;1.00
3172;DHT22;1597;51.572;6.992;2022-09-02T08:02:47;18.70;1.00
3172;DHT22;1597;51.572;6.992;2022-09-02T08:05:14;18.70;1.00
3172;DHT22;1597;51.572;6.992;2022-09-02T08:07:40;18.70;1.00
3172;DHT22;1597;51.572;6.992;2022-09-02T08:10:07;18.80;1.00
3172;DHT22;1597;51.572;6.992;2022-09-02T08:12:36;18.80;1.00
3172;DHT22;1597;51.572;6.992;2022-09-02T08:15:03;18.90;1.00
3172;DHT22;1597;51.572;6.992;2022-09-02T08:17:30;19.00;1.00
3172;DHT22;1597;51.572;6.992;2022-09-02T08:19:56;19.20;1.00
3172;DHT22;1597;51.572;6.992;2022-09-02T08:22:23;19.30;1.00
3172;DHT22;1597;51.572;6.992;2022-09-02T08:24:49;19.40;1.00
3172;DHT22;1597;51.572;6.992;2022-09-02T08:27:15;19.50;1.00
3172;DHT22;1597;51.572;6.992;2022-09-02T08:29:41;19.60;1.00
3172;DHT22;1597;51.572;6.992;2022-09-02T08:32:07;19.60;1.00
3172;DHT22;1597;51.572;6.992;2022-09-02T08:34:33;19.70;1.00
3172;DHT22;1597;51.572;6.992;2022-09-02T08:36:59;19.90;1.00
3172;DHT22;1597;51.572;6.992;2022-09-02T08:39:25;20.00;1.00
3172;DHT22;1597;51.572;6.992;2022-09-02T08:42:06;20.10;1.00
3172;DHT22;1597;51.572;6.992;2022-09-02T08:44:37;20.20;1.00
3172;DHT22;1597;51.572;6.992;2022-09-02T08:47:05;20.00;1.00
3172;DHT22;1597;51.572;6.992;2022-09-02T08:49:49;20.30;1.00
3172;DHT22;1597;51.572;6.992;2022-09-02T08:52:30;20.30;1.00
3172;DHT22;1597;51.572;6.992;2022-09-02T08:55:15;20.30;1.00
3172;DHT22;1597;51.572;6.992;2022-09-02T08:57:45;20.30;1.00
3172;DHT22;1597;51.572;6.992;2022-09-02T09:00:12;20.30;1.00
3172;DHT22;1597;51.572;6.992;2022-09-02T09:02:47;20.30;1.00
3172;DHT22;1597;51.572;6.992;2022-09-02T09:05:42;20.50;1.00
3172;DHT22;1597;51.572;6.992;2022-09-02T09:18:40;20.70;1.00
3172;DHT22;1597;51.572;6.992;2022-09-02T09:21:33;20.80;1.00
3172;DHT22;1597;51.572;6.992;2022-09-02T09:24:21;20.90;1.00
3172;DHT22;1597;51.572;6.992;2022-09-02T09:26:55;21.10;1.00
3172;DHT22;1597;51.572;6.992;2022-09-02T09:29:22;21.20;1.00
3172;DHT22;1597;51.572;6.992;2022-09-02T09:31:54;21.20;1.00
3172;DHT22;1597;51.572;6.992;2022-09-02T09:34:22;21.20;1.00
3172;DHT22;1597;51.572;6.992;2022-09-02T09:36:52;21.30;1.00
3172;DHT22;1597;51.572;6.992;2022-09-02T09:39:30;21.30;1.00
3172;DHT22;1597;51.572;6.992;2022-09-02T09:42:02;21.40;1.00
3172;DHT22;1597;51.572;6.992;2022-09-02T09:44:42;21.40;1.00
3172;DHT22;1597;51.572;6.992;2022-09-02T09:47:29;21.50;1.00
3172;DHT22;1597;51.572;6.992;2022-09-02T09:50:15;21.70;1.00
3172;DHT22;1597;51.572;6.992;2022-09-02T09:52:41;21.80;1.00
3172;DHT22;1597;51.572;6.992;2022-09-02T09:55:23;21.80;1.00
3172;DHT22;1597;51.572;6.992;2022-09-02T09:58:07;21.70;1.00
3172;DHT22;1597;51.572;6.992;2022-09-02T10:00:34;21.70;1.00
3172;DHT22;1597;51.572;6.992;2022-09-02T10:03:02;21.80;1.00
3172;DHT22;1597;51.572;6.992;2022-09-02T10:05:31;22.00;1.00
3172;DHT22;1597;51.572;6.992;2022-09-02T10:08:20;22.10;1.00
3172;DHT22;1597;51.572;6.992;2022-09-02T10:11:04;22.20;1.00
3172;DHT22;1597;51.572;6.992;2022-09-02T10:13:34;22.30;1.00
3172;DHT22;1597;51.572;6.992;2022-09-02T10:18:44;22.50;1.00
3172;DHT22;1597;51.572;6.992;2022-09-02T10:26:49;22.70;1.00
3172;DHT22;1597;51.572;6.992;2022-09-02T10:29:27;22.80;1.00
3172;DHT22;1597;51.572;6.992;2022-09-02T10:38:21;23.00;1.00
3172;DHT22;1597;51.572;6.992;2022-09-02T10:40:56;23.00;1.00
3172;DHT22;1597;51.572;6.992;2022-09-02T10:46:25;23.10;1.00
3172;DHT22;1597;51.572;6.992;2022-09-02T10:49:10;23.10;1.00
3172;DHT22;1597;51.572;6.992;2022-09-02T10:51:44;23.20;1.00
3172;DHT22;1597;51.572;6.992;2022-09-02T10:57:32;23.10;1.00
3172;DHT22;1597;51.572;6.992;2022-09-02T11:00:03;23.00;1.00
3172;DHT22;1597;51.572;6.992;2022-09-02T11:05:47;23.00;1.00
3172;DHT22;1597;51.572;6.992;2022-09-02T11:16:50;23.10;1.00
3172;DHT22;1597;51.572;6.992;2022-09-02T11:19:22;23.10;1.00
3172;DHT22;1597;51.572;6.992;2022-09-02T11:24:50;23.10;1.00
3172;DHT22;1597;51.572;6.992;2022-09-02T11:30:07;23.20;1.00
3172;DHT22;1597;51.572;6.992;2022-09-02T11:32:55;23.30;1.00
3172;DHT22;1597;51.572;6.992;2022-09-02T11:35:27;23.30;1.00
3172;DHT22;1597;51.572;6.992;2022-09-02T11:43:55;23.30;1.00
3172;DHT22;1597;51.572;6.992;2022-09-02T11:49:36;23.40;1.00
3172;DHT22;1597;51.572;6.992;2022-09-02T11:52:28;23.50;1.00
3172;DHT22;1597;51.572;6.992;2022-09-02T11:55:20;23.50;1.00
3172;DHT22;1597;51.572;6.992;2022-09-02T11:57:53;23.50;1.00
3172;DHT22;1597;51.572;6.992;2022-09-02T12:03:18;23.60;1.00
3172;DHT22;1597;51.572;6.992;2022-09-02T12:06:10;23.60;1.00
3172;DHT22;1597;51.572;6.992;2022-09-02T12:11:09;23.70;1.00
3172;DHT22;1597;51.572;6.992;2022-09-02T12:14:03;23.70;1.00
3172;DHT22;1597;51.572;6.992;2022-09-02T12:17:41;23.90;1.00
3172;DHT22;1597;51.572;6.992;2022-09-02T12:21:12;23.70;1.00
3172;DHT22;1597;51.572;6.992;2022-09-02T12:26:16;23.40;1.00
3172;DHT22;1597;51.572;6.992;2022-09-02T12:28:44;23.90;1.00
3172;DHT22;1597;51.572;6.992;2022-09-02T12:31:35;24.00;1.00
3172;DHT22;1597;51.572;6.992;2022-09-02T12:37:50;24.00;1.00
3172;DHT22;1597;51.572;6.992;2022-09-02T12:40:28;24.00;1.00
3172;DHT22;1597;51.572;6.992;2022-09-02T12:42:59;24.00;1.00
3172;DHT22;1597;51.572;6.992;2022-09-02T12:45:30;24.20;1.00
3172;DHT22;1597;51.572;6.992;2022-09-02T12:48:08;24.20;1.00
3172;DHT22;1597;51.572;6.992;2022-09-02T12:50:54;24.30;1.00
3172;DHT22;1597;51.572;6.992;2022-09-02T12:53:41;24.50;1.00
3172;DHT22;1597;51.572;6.992;2022-09-02T12:58:56;24.70;1.00
3172;DHT22;1597;51.572;6.992;2022-09-02T13:01:48;24.70;1.00
3172;DHT22;1597;51.572;6.992;2022-09-02T13:27:01;25.30;1.00
3172;DHT22;1597;51.572;6.992;2022-09-02T13:32:55;25.40;1.00
3172;DHT22;1597;51.572;6.992;2022-09-02T13:35:26;25.30;1.00
3172;DHT22;1597;51.572;6.992;2022-09-02T13:37:59;25.30;1.00
3172;DHT22;1597;51.572;6.992;2022-09-02T13:40:32;25.30;1.00
3172;DHT22;1597;51.572;6.992;2022-09-02T13:43:14;25.30;1.00
3172;DHT22;1597;51.572;6.992;2022-09-02T13:45:45;25.30;1.00
3172;DHT22;1597;51.572;6.992;2022-09-02T13:50:53;25.50;1.00
3172;DHT22;1597;51.572;6.992;2022-09-02T13:53:31;25.50;1.00
3172;DHT22;1597;51.572;6.992;2022-09-02T13:56:00;25.50;1.00
3172;DHT22;1597;51.572;6.992;2022-09-02T13:58:32;25.50;1.00
3172;DHT22;1597;51.572;6.992;2022-09-02T14:01:23;25.60;1.00
3172;DHT22;1597;51.572;6.992;2022-09-02T14:03:55;25.60;1.00
3172;DHT22;1597;51.572;6.992;2022-09-02T14:06:26;25.50;1.00
3172;DHT22;1597;51.572;6.992;2022-09-02T14:08:57;25.50;1.00
3172;DHT22;1597;51.572;6.992;2022-09-02T14:11:26;25.60;1.00
3172;DHT22;1597;51.572;6.992;2022-09-02T14:13:53;25.60;1.00
3172;DHT22;1597;51.572;6.992;2022-09-02T14:16:35;25.60;1.00
3172;DHT22;1597;51.572;6.992;2022-09-02T14:21:49;25.50;1.00
3172;DHT22;1597;51.572;6.992;2022-09-02T14:24:20;25.30;1.00
3172;DHT22;1597;51.572;6.992;2022-09-02T14:27:01;25.30;1.00
3172;DHT22;1597;51.572;6.992;2022-09-02T14:29:29;25.30;1.00
3172;DHT22;1597;51.572;6.992;2022-09-02T14:32:12;25.30;1.00
3172;DHT22;1597;51.572;6.992;2022-09-02T14:34:45;25.30;1.00
3172;DHT22;1597;51.572;6.992;2022-09-02T14:37:26;25.30;1.00
3172;DHT22;1597;51.572;6.992;2022-09-02T14:40:08;25.40;1.00
3172;DHT22;1597;51.572;6.992;2022-09-02T14:42:49;25.40;1.00
3172;DHT22;1597;51.572;6.992;2022-09-02T14:45:31;25.40;1.00
3172;DHT22;1597;51.572;6.992;2022-09-02T14:48:09;25.20;1.00
3172;DHT22;1597;51.572;6.992;2022-09-02T14:50:44;25.30;1.00
3172;DHT22;1597;51.572;6.992;2022-09-02T14:53:11;25.30;1.00
3172;DHT22;1597;51.572;6.992;2022-09-02T14:55:56;25.30;1.00
3172;DHT22;1597;51.572;6.992;2022-09-02T14:58:26;25.30;1.00
3172;DHT22;1597;51.572;6.992;2022-09-02T15:00:57;25.30;1.00
3172;DHT22;1597;51.572;6.992;2022-09-02T15:03:27;25.30;1.00
3172;DHT22;1597;51.572;6.992;2022-09-02T15:05:55;25.30;1.00
3172;DHT22;1597;51.572;6.992;2022-09-02T15:08:21;25.30;1.00
3172;DHT22;1597;51.572;6.992;2022-09-02T15:10:47;25.20;1.00
3172;DHT22;1597;51.572;6.992;2022-09-02T15:13:32;25.20;1.00
3172;DHT22;1597;51.572;6.992;2022-09-02T15:15:59;25.30;1.00
3172;DHT22;1597;51.572;6.992;2022-09-02T15:18:25;25.40;1.00
3172;DHT22;1597;51.572;6.992;2022-09-02T15:20:51;25.50;1.00
3172;DHT22;1597;51.572;6.992;2022-09-02T15:23:18;25.60;1.00
3172;DHT22;1597;51.572;6.992;2022-09-02T15:25:44;25.60;1.00
3172;DHT22;1597;51.572;6.992;2022-09-02T15:28:10;25.70;1.00
3172;DHT22;1597;51.572;6.992;2022-09-02T15:30:36;25.70;1.00
3172;DHT22;1597;51.572;6.992;2022-09-02T15:33:03;26.00;1.00
3172;DHT22;1597;51.572;6.992;2022-09-02T15:35:33;25.60;1.00
3172;DHT22;1597;51.572;6.992;2022-09-02T15:38:00;25.60;1.00
3172;DHT22;1597;51.572;6.992;2022-09-02T15:40:28;25.60;1.00
3172;DHT22;1597;51.572;6.992;2022-09-02T15:42:54;25.50;1.00
3172;DHT22;1597;51.572;6.992;2022-09-02T15:45:21;25.50;1.00
3172;DHT22;1597;51.572;6.992;2022-09-02T15:47:47;25.50;1.00
3172;DHT22;1597;51.572;6.992;2022-09-02T15:50:13;25.50;1.00
3172;DHT22;1597;51.572;6.992;2022-09-02T15:52:39;25.50;1.00
3172;DHT22;1597;51.572;6.992;2022-09-02T15:55:05;25.50;1.00
3172;DHT22;1597;51.572;6.992;2022-09-02T15:57:31;25.40;1.00
3172;DHT22;1597;51.572;6.992;2022-09-02T15:59:57;25.40;1.00
3172;DHT22;1597;51.572;6.992;2022-09-02T16:02:24;25.40;1.00
3172;DHT22;1597;51.572;6.992;2022-09-02T16:04:50;25.30;1.00
3172;DHT22;1597;51.572;6.992;2022-09-02T16:07:15;25.30;1.00
3172;DHT22;1597;51.572;6.992;2022-09-02T16:09:41;25.20;1.00
3172;DHT22;1597;51.572;6.992;2022-09-02T16:12:07;25.20;1.00
3172;DHT22;1597;51.572;6.992;2022-09-02T16:14:34;25.10;1.00
3172;DHT22;1597;51.572;6.992;2022-09-02T16:17:00;25.00;1.00
3172;DHT22;1597;51.572;6.992;2022-09-02T16:19:26;25.00;1.00
3172;DHT22;1597;51.572;6.992;2022-09-02T16:21:53;25.00;1.00
3172;DHT22;1597;51.572;6.992;2022-09-02T16:24:19;24.90;1.00
3172;DHT22;1597;51.572;6.992;2022-09-02T16:26:47;24.90;1.00
3172;DHT22;1597;51.572;6.992;2022-09-02T16:29:15;24.80;1.00
3172;DHT22;1597;51.572;6.992;2022-09-02T16:31:44;24.80;1.00
3172;DHT22;1597;51.572;6.992;2022-09-02T16:34:16;24.70;1.00
3172;DHT22;1597;51.572;6.992;2022-09-02T16:36:45;24.70;1.00
3172;DHT22;1597;51.572;6.992;2022-09-02T16:39:12;24.60;1.00
3172;DHT22;1597;51.572;6.992;2022-09-02T16:41:42;24.60;1.00
3172;DHT22;1597;51.572;6.992;2022-09-02T16:44:12;24.60;1.00
3172;DHT22;1597;51.572;6.992;2022-09-02T16:46:41;24.50;1.00
3172;DHT22;1597;51.572;6.992;2022-09-02T16:49:12;24.50;1.00
3172;DHT22;1597;51.572;6.992;2022-09-02T16:51:45;24.50;1.00
3172;DHT22;1597;51.572;6.992;2022-09-02T16:54:13;24.50;1.00
3172;DHT22;1597;51.572;6.992;2022-09-02T16:56:40;24.40;1.00
3172;DHT22;1597;51.572;6.992;2022-09-02T16:59:08;24.40;1.00
3172;DHT22;1597;51.572;6.992;2022-09-02T17:01:36;24.40;1.00
3172;DHT22;1597;51.572;6.992;2022-09-02T17:04:03;24.40;1.00
3172;DHT22;1597;51.572;6.992;2022-09-02T17:06:29;24.30;1.00
3172;DHT22;1597;51.572;6.992;2022-09-02T17:08:56;24.30;1.00
3172;DHT22;1597;51.572;6.992;2022-09-02T17:14:14;24.20;1.00
3172;DHT22;1597;51.572;6.992;2022-09-02T17:16:43;24.20;1.00
3172;DHT22;1597;51.572;6.992;2022-09-02T17:19:11;24.10;1.00
3172;DHT22;1597;51.572;6.992;2022-09-02T17:21:42;24.00;1.00
3172;DHT22;1597;51.572;6.992;2022-09-02T17:24:10;24.00;1.00
3172;DHT22;1597;51.572;6.992;2022-09-02T17:26:39;24.00;1.00
3172;DHT22;1597;51.572;6.992;2022-09-02T17:29:11;24.00;1.00
3172;DHT22;1597;51.572;6.992;2022-09-02T17:31:38;24.00;1.00
3172;DHT22;1597;51.572;6.992;2022-09-02T17:34:07;24.00;1.00
3172;DHT22;1597;51.572;6.992;2022-09-02T17:36:36;23.90;1.00
3172;DHT22;1597;51.572;6.992;2022-09-02T17:39:06;23.90;1.00
3172;DHT22;1597;51.572;6.992;2022-09-02T17:41:37;23.90;1.00
3172;DHT22;1597;51.572;6.992;2022-09-02T17:44:28;23.90;1.00
3172;DHT22;1597;51.572;6.992;2022-09-02T17:47:21;23.80;1.00
3172;DHT22;1597;51.572;6.992;2022-09-02T17:49:47;23.80;1.00
3172;DHT22;1597;51.572;6.992;2022-09-02T17:52:19;23.50;1.00
3172;DHT22;1597;51.572;6.992;2022-09-02T17:54:51;23.70;1.00
3172;DHT22;1597;51.572;6.992;2022-09-02T17:57:37;23.70;1.00
3172;DHT22;1597;51.572;6.992;2022-09-02T18:00:20;23.60;1.00
3172;DHT22;1597;51.572;6.992;2022-09-02T18:03:13;23.60;1.00
3172;DHT22;1597;51.572;6.992;2022-09-02T18:06:08;23.50;1.00
3172;DHT22;1597;51.572;6.992;2022-09-02T18:08:47;23.40;1.00
3172;DHT22;1597;51.572;6.992;2022-09-02T18:11:17;23.40;1.00
3172;DHT22;1597;51.572;6.992;2022-09-02T18:22:15;23.20;1.00
3172;DHT22;1597;51.572;6.992;2022-09-02T18:34:37;22.90;1.00
3172;DHT22;1597;51.572;6.992;2022-09-02T18:37:17;22.90;1.00
3172;DHT22;1597;51.572;6.992;2022-09-02T18:42:51;22.90;1.00
3172;DHT22;1597;51.572;6.992;2022-09-02T18:45:36;22.80;1.00
3172;DHT22;1597;51.572;6.992;2022-09-02T18:48:11;22.70;1.00
3172;DHT22;1597;51.572;6.992;2022-09-02T18:53:53;22.70;1.00
3172;DHT22;1597;51.572;6.992;2022-09-02T18:56:29;22.70;1.00
3172;DHT22;1597;51.572;6.992;2022-09-02T18:59:05;22.70;1.00